createdAt,value
2016-12-05T00:00:12.294Z,-3
2016-12-05T00:01:11.649Z,-2.92
2016-12-05T00:02:11.932Z,-2.87
2016-12-05T00:03:11.592Z,-2.9
2016-12-05T00:04:11.568Z,-2.94
2016-12-05T00:05:11.547Z,-2.94
2016-12-05T00:06:11.523Z,-2.82
2016-12-05T00:07:11.501Z,-2.96
2016-12-05T00:08:11.473Z,-2.94
2016-12-05T00:09:11.764Z,-2.9
2016-12-05T00:10:12.101Z,-2.89
2016-12-05T00:11:11.399Z,-2.87
2016-12-05T00:12:11.378Z,-2.92
2016-12-05T00:13:11.358Z,-2.9
2016-12-05T00:14:11.326Z,-2.93
2016-12-05T00:15:11.314Z,-3.02
2016-12-05T00:16:11.291Z,-2.92
2016-12-05T00:17:11.889Z,-2.99
2016-12-05T00:18:11.228Z,-3
2016-12-05T00:19:11.516Z,-3.11
2016-12-05T00:20:11.180Z,-3.05
2016-12-05T00:21:11.154Z,-3.1
2016-12-05T00:22:11.126Z,-3.14
2016-12-05T00:23:11.102Z,-3.11
2016-12-05T00:24:11.078Z,-3.15
2016-12-05T00:25:11.048Z,-3.18
2016-12-05T00:26:11.028Z,-3.13
2016-12-05T00:27:11.005Z,-3.11
2016-12-05T00:28:10.978Z,-3.14
2016-12-05T00:29:10.952Z,-3.17
2016-12-05T00:30:10.921Z,-3.13
2016-12-05T00:31:10.898Z,-3.25
2016-12-05T00:32:10.880Z,-3.23
2016-12-05T00:33:10.855Z,-3.22
2016-12-05T00:34:10.833Z,-3.28
2016-12-05T00:35:10.802Z,-3.28
2016-12-05T00:36:10.777Z,-3.2
2016-12-05T00:37:10.754Z,-3.31
2016-12-05T00:38:10.729Z,-3.26
2016-12-05T00:39:11.018Z,-3.32
2016-12-05T00:40:10.685Z,-3.36
2016-12-05T00:41:10.652Z,-3.35
2016-12-05T00:42:10.628Z,-3.33
2016-12-05T00:43:10.601Z,-3.33
2016-12-05T00:44:10.580Z,-3.33
2016-12-05T00:45:10.869Z,-3.31
2016-12-05T00:46:10.531Z,-3.29
2016-12-05T00:47:10.821Z,-3.35
2016-12-05T00:48:10.480Z,-3.36
2016-12-05T00:49:10.455Z,-3.31
2016-12-05T00:50:10.429Z,-3.31
2016-12-05T00:51:10.403Z,-3.33
2016-12-05T00:52:10.383Z,-3.36
2016-12-05T00:53:10.358Z,-3.33
2016-12-05T00:54:10.336Z,-3.39
2016-12-05T00:55:10.305Z,-3.32
2016-12-05T00:56:10.279Z,-3.39
2016-12-05T00:57:10.254Z,-3.33
2016-12-05T00:58:10.227Z,-3.41
2016-12-05T00:59:10.211Z,-3.38
2016-12-05T01:00:10.183Z,-3.38
2016-12-05T01:01:10.157Z,-3.38
2016-12-05T01:02:10.133Z,-3.39
2016-12-05T01:03:10.120Z,-3.32
2016-12-05T01:04:10.393Z,-3.38
2016-12-05T01:05:10.052Z,-3.43
2016-12-05T01:06:10.032Z,-3.33
2016-12-05T01:07:10.006Z,-3.46
2016-12-05T01:08:10.307Z,-3.41
2016-12-05T01:09:10.269Z,-3.43
2016-12-05T01:10:09.940Z,-3.47
2016-12-05T01:11:09.907Z,-3.43
2016-12-05T01:12:10.198Z,-3.39
2016-12-05T01:13:10.177Z,-3.44
2016-12-05T01:14:10.151Z,-3.43
2016-12-05T01:15:09.841Z,-3.43
2016-12-05T01:16:09.781Z,-3.54
2016-12-05T01:17:10.386Z,-3.49
2016-12-05T01:18:09.760Z,-3.51
2016-12-05T01:19:09.710Z,-3.47
2016-12-05T01:20:09.995Z,-3.5
2016-12-05T01:21:10.282Z,-3.5
2016-12-05T01:22:09.633Z,-3.5
2016-12-05T01:23:09.609Z,-3.56
2016-12-05T01:24:09.582Z,-3.51
2016-12-05T01:25:09.560Z,-3.51
2016-12-05T01:26:09.542Z,-3.46
2016-12-05T01:27:09.517Z,-3.49
2016-12-05T01:28:09.530Z,-3.51
2016-12-05T01:29:10.091Z,-3.53
2016-12-05T01:30:09.436Z,-3.53
2016-12-05T01:31:09.413Z,-3.51
2016-12-05T01:32:09.385Z,-3.56
2016-12-05T01:33:09.362Z,-3.47
2016-12-05T01:34:09.331Z,-3.53
2016-12-05T01:35:09.310Z,-3.57
2016-12-05T01:36:09.281Z,-3.57
2016-12-05T01:37:09.581Z,-3.61
2016-12-05T01:38:09.232Z,-3.6
2016-12-05T01:39:09.208Z,-3.6
2016-12-05T01:40:09.185Z,-3.57
2016-12-05T01:41:09.161Z,-3.67
2016-12-05T01:42:09.135Z,-3.51
2016-12-05T01:43:09.113Z,-3.56
2016-12-05T01:44:09.085Z,-3.65
2016-12-05T01:45:09.060Z,-3.61
2016-12-05T01:46:09.034Z,-3.61
2016-12-05T01:47:09.004Z,-3.65
2016-12-05T01:48:08.985Z,-3.64
2016-12-05T01:49:08.953Z,-3.62
2016-12-05T01:50:08.934Z,-3.65
2016-12-05T01:51:09.218Z,-3.57
2016-12-05T01:52:08.883Z,-3.61
2016-12-05T01:53:08.860Z,-3.6
2016-12-05T01:54:09.164Z,-3.53
2016-12-05T01:55:09.131Z,-3.57
2016-12-05T01:56:08.783Z,-3.57
2016-12-05T01:57:08.757Z,-3.57
2016-12-05T01:58:08.733Z,-3.62
2016-12-05T01:59:08.704Z,-3.65
2016-12-05T02:00:08.687Z,-3.6
2016-12-05T02:01:08.665Z,-3.54
2016-12-05T02:02:08.943Z,-3.54
2016-12-05T02:03:08.920Z,-3.61
2016-12-05T02:04:08.583Z,-3.57
2016-12-05T02:05:08.871Z,-3.65
2016-12-05T02:06:08.528Z,-3.57
2016-12-05T02:07:09.134Z,-3.65
2016-12-05T02:08:08.487Z,-3.54
2016-12-05T02:09:08.451Z,-3.57
2016-12-05T02:10:08.743Z,-3.57
2016-12-05T02:11:08.409Z,-3.61
2016-12-05T02:12:08.697Z,-3.62
2016-12-05T02:13:08.351Z,-3.61
2016-12-05T02:14:08.331Z,-3.57
2016-12-05T02:15:08.306Z,-3.56
2016-12-05T02:16:08.281Z,-3.53
2016-12-05T02:17:08.260Z,-3.49
2016-12-05T02:18:08.851Z,-3.46
2016-12-05T02:19:08.205Z,-3.49
2016-12-05T02:20:08.178Z,-3.51
2016-12-05T02:21:08.152Z,-3.41
2016-12-05T02:22:08.132Z,-3.35
2016-12-05T02:23:08.414Z,-3.41
2016-12-05T02:24:08.077Z,-3.44
2016-12-05T02:25:08.060Z,-3.32
2016-12-05T02:26:08.027Z,-3.29
2016-12-05T02:27:07.999Z,-3.33
2016-12-05T02:28:07.977Z,-3.33
2016-12-05T02:29:07.954Z,-3.29
2016-12-05T02:30:08.242Z,-3.25
2016-12-05T02:31:07.906Z,-3.28
2016-12-05T02:32:08.190Z,-3.29
2016-12-05T02:33:07.854Z,-3.33
2016-12-05T02:34:08.141Z,-3.41
2016-12-05T02:35:07.798Z,-3.32
2016-12-05T02:36:07.784Z,-3.31
2016-12-05T02:37:07.756Z,-3.32
2016-12-05T02:38:07.728Z,-3.29
2016-12-05T02:39:07.702Z,-3.33
2016-12-05T02:40:07.991Z,-3.26
2016-12-05T02:41:07.650Z,-3.26
2016-12-05T02:42:07.630Z,-3.28
2016-12-05T02:43:07.602Z,-3.29
2016-12-05T02:44:07.578Z,-3.2
2016-12-05T02:45:07.559Z,-3.15
2016-12-05T02:46:07.530Z,-3.11
2016-12-05T02:47:07.501Z,-3.13
2016-12-05T02:48:07.480Z,-3.05
2016-12-05T02:49:07.765Z,-2.96
2016-12-05T02:50:07.427Z,-3
2016-12-05T02:51:07.716Z,-2.99
2016-12-05T02:52:07.379Z,-2.89
2016-12-05T02:53:07.349Z,-2.89
2016-12-05T02:54:07.325Z,-2.79
2016-12-05T02:55:07.305Z,-2.82
2016-12-05T02:56:07.275Z,-2.72
2016-12-05T02:57:07.563Z,-2.74
2016-12-05T02:58:07.229Z,-2.79
2016-12-05T02:59:07.207Z,-2.74
2016-12-05T03:00:07.542Z,-2.72
2016-12-05T03:01:07.465Z,-2.71
2016-12-05T03:02:07.127Z,-2.68
2016-12-05T03:03:07.107Z,-2.76
2016-12-05T03:04:07.074Z,-2.75
2016-12-05T03:05:07.052Z,-2.69
2016-12-05T03:06:07.040Z,-2.66
2016-12-05T03:07:07.015Z,-2.69
2016-12-05T03:08:06.975Z,-2.72
2016-12-05T03:09:06.964Z,-2.63
2016-12-05T03:10:07.241Z,-2.68
2016-12-05T03:11:06.909Z,-2.66
2016-12-05T03:12:07.198Z,-2.63
2016-12-05T03:13:06.853Z,-2.75
2016-12-05T03:14:06.831Z,-2.79
2016-12-05T03:15:06.810Z,-2.78
2016-12-05T03:16:07.094Z,-2.82
2016-12-05T03:17:06.757Z,-2.78
2016-12-05T03:18:06.726Z,-2.92
2016-12-05T03:19:06.706Z,-2.93
2016-12-05T03:20:06.994Z,-2.94
2016-12-05T03:21:06.654Z,-2.9
2016-12-05T03:22:06.630Z,-2.97
2016-12-05T03:23:06.608Z,-2.96
2016-12-05T03:24:06.582Z,-2.93
2016-12-05T03:25:06.556Z,-2.99
2016-12-05T03:26:06.844Z,-3
2016-12-05T03:27:06.507Z,-3.11
2016-12-05T03:28:06.794Z,-3.18
2016-12-05T03:29:06.460Z,-3.17
2016-12-05T03:30:06.434Z,-3.17
2016-12-05T03:31:06.409Z,-3.15
2016-12-05T03:32:06.381Z,-3.13
2016-12-05T03:33:06.367Z,-3.1
2016-12-05T03:34:06.339Z,-3.13
2016-12-05T03:35:06.342Z,-3.15
2016-12-05T03:36:06.294Z,-3.17
2016-12-05T03:37:06.261Z,-3.22
2016-12-05T03:38:06.236Z,-3.26
2016-12-05T03:39:06.209Z,-3.35
2016-12-05T03:40:06.184Z,-3.28
2016-12-05T03:41:06.490Z,-3.29
2016-12-05T03:42:06.140Z,-3.29
2016-12-05T03:43:06.116Z,-3.33
2016-12-05T03:44:06.085Z,-3.31
2016-12-05T03:45:06.066Z,-3.33
2016-12-05T03:46:06.034Z,-3.31
2016-12-05T03:47:06.014Z,-3.38
2016-12-05T03:48:06.609Z,-3.33
2016-12-05T03:49:06.280Z,-3.41
2016-12-05T03:50:05.938Z,-3.43
2016-12-05T03:51:05.909Z,-3.43
2016-12-05T03:52:05.882Z,-3.41
2016-12-05T03:53:05.862Z,-3.44
2016-12-05T03:54:06.146Z,-3.5
2016-12-05T03:55:05.815Z,-3.46
2016-12-05T03:56:06.104Z,-3.53
2016-12-05T03:57:05.787Z,-3.53
2016-12-05T03:58:05.740Z,-3.53
2016-12-05T03:59:06.019Z,-3.57
2016-12-05T04:00:06.000Z,-3.62
2016-12-05T04:01:05.680Z,-3.62
2016-12-05T04:02:05.948Z,-3.54
2016-12-05T04:03:06.291Z,-3.49
2016-12-05T04:04:05.602Z,-3.62
2016-12-05T04:05:05.880Z,-3.65
2016-12-05T04:06:05.851Z,-3.67
2016-12-05T04:07:05.821Z,-3.64
2016-12-05T04:08:05.487Z,-3.64
2016-12-05T04:09:05.779Z,-3.67
2016-12-05T04:10:05.433Z,-3.61
2016-12-05T04:11:05.718Z,-3.65
2016-12-05T04:12:05.383Z,-3.65
2016-12-05T04:13:05.353Z,-3.64
2016-12-05T04:14:05.335Z,-3.64
2016-12-05T04:15:05.306Z,-3.62
2016-12-05T04:16:05.606Z,-3.62
2016-12-05T04:17:05.256Z,-3.76
2016-12-05T04:18:05.233Z,-3.67
2016-12-05T04:19:05.204Z,-3.62
2016-12-05T04:20:05.186Z,-3.72
2016-12-05T04:21:05.799Z,-3.71
2016-12-05T04:22:05.134Z,-3.71
2016-12-05T04:23:05.107Z,-3.78
2016-12-05T04:24:05.081Z,-3.7
2016-12-05T04:25:05.055Z,-3.76
2016-12-05T04:26:05.030Z,-3.83
2016-12-05T04:27:05.007Z,-3.8
2016-12-05T04:28:05.293Z,-3.78
2016-12-05T04:29:04.954Z,-3.8
2016-12-05T04:30:04.929Z,-3.8
2016-12-05T04:31:05.534Z,-3.81
2016-12-05T04:32:04.875Z,-3.78
2016-12-05T04:33:04.858Z,-3.83
2016-12-05T04:34:04.834Z,-3.81
2016-12-05T04:35:04.801Z,-3.86
2016-12-05T04:36:04.776Z,-3.81
2016-12-05T04:37:04.753Z,-3.84
2016-12-05T04:38:04.720Z,-3.84
2016-12-05T04:39:04.721Z,-3.87
2016-12-05T04:40:04.992Z,-3.91
2016-12-05T04:41:04.650Z,-3.89
2016-12-05T04:42:04.621Z,-3.87
2016-12-05T04:43:04.912Z,-3.96
2016-12-05T04:44:04.894Z,-3.94
2016-12-05T04:45:04.554Z,-3.9
2016-12-05T04:46:04.530Z,-3.93
2016-12-05T04:47:04.513Z,-3.94
2016-12-05T04:48:04.793Z,-3.93
2016-12-05T04:49:04.757Z,-4.01
2016-12-05T04:50:04.427Z,-3.94
2016-12-05T04:51:04.394Z,-3.96
2016-12-05T04:52:04.374Z,-3.91
2016-12-05T04:53:04.680Z,-3.91
2016-12-05T04:54:04.320Z,-3.99
2016-12-05T04:55:04.616Z,-3.96
2016-12-05T04:56:04.273Z,-3.99
2016-12-05T04:57:04.292Z,-4.05
2016-12-05T04:58:04.218Z,-4.04
2016-12-05T04:59:04.508Z,-3.96
2016-12-05T05:00:04.170Z,-4.08
2016-12-05T05:01:04.141Z,-4.08
2016-12-05T05:02:04.166Z,-4.02
2016-12-05T05:03:04.091Z,-4.02
2016-12-05T05:04:04.068Z,-4.08
2016-12-05T05:05:04.041Z,-4.09
2016-12-05T05:06:04.013Z,-4.09
2016-12-05T05:07:03.990Z,-4.12
2016-12-05T05:08:03.960Z,-4.19
2016-12-05T05:09:03.936Z,-4.12
2016-12-05T05:10:03.910Z,-4.18
2016-12-05T05:11:03.888Z,-4.14
2016-12-05T05:12:03.865Z,-4.19
2016-12-05T05:13:04.167Z,-4.2
2016-12-05T05:14:04.169Z,-4.14
2016-12-05T05:15:04.103Z,-4.14
2016-12-05T05:16:03.758Z,-4.2
2016-12-05T05:17:03.741Z,-4.15
2016-12-05T05:18:03.709Z,-4.23
2016-12-05T05:19:03.684Z,-4.12
2016-12-05T05:20:03.659Z,-4.11
2016-12-05T05:21:03.634Z,-4.19
2016-12-05T05:22:03.630Z,-4.22
2016-12-05T05:23:03.581Z,-4.18
2016-12-05T05:24:03.555Z,-4.22
2016-12-05T05:25:03.535Z,-4.14
2016-12-05T05:26:03.504Z,-4.12
2016-12-05T05:27:03.476Z,-4.15
2016-12-05T05:28:03.458Z,-4.2
2016-12-05T05:29:03.736Z,-4.11
2016-12-05T05:30:03.407Z,-4.14
2016-12-05T05:31:03.688Z,-4.18
2016-12-05T05:32:03.663Z,-4.26
2016-12-05T05:33:03.320Z,-4.18
2016-12-05T05:34:03.302Z,-4.23
2016-12-05T05:35:03.270Z,-4.26
2016-12-05T05:36:03.560Z,-4.25
2016-12-05T05:37:03.221Z,-4.23
2016-12-05T05:38:03.506Z,-4.25
2016-12-05T05:39:03.167Z,-4.23
2016-12-05T05:40:03.147Z,-4.26
2016-12-05T05:41:03.118Z,-4.23
2016-12-05T05:42:03.090Z,-4.25
2016-12-05T05:43:03.381Z,-4.2
2016-12-05T05:44:03.043Z,-4.22
2016-12-05T05:45:03.019Z,-4.28
2016-12-05T05:46:02.991Z,-4.26
2016-12-05T05:47:02.965Z,-4.32
2016-12-05T05:48:02.941Z,-4.3
2016-12-05T05:49:02.910Z,-4.43
2016-12-05T05:50:02.883Z,-4.4
2016-12-05T05:51:02.861Z,-4.36
2016-12-05T05:52:03.145Z,-4.47
2016-12-05T05:53:02.804Z,-4.47
2016-12-05T05:54:03.411Z,-4.44
2016-12-05T05:55:02.868Z,-4.55
2016-12-05T05:56:03.048Z,-4.54
2016-12-05T05:57:02.707Z,-4.46
2016-12-05T05:58:02.678Z,-4.46
2016-12-05T05:59:02.657Z,-4.4
2016-12-05T06:00:02.951Z,-4.43
2016-12-05T06:01:02.618Z,-4.47
2016-12-05T06:02:02.581Z,-4.48
2016-12-05T06:03:02.555Z,-4.54
2016-12-05T06:04:02.524Z,-4.58
2016-12-05T06:05:02.812Z,-4.47
2016-12-05T06:06:02.786Z,-4.62
2016-12-05T06:07:02.451Z,-4.65
2016-12-05T06:08:02.419Z,-4.66
2016-12-05T06:09:02.713Z,-4.61
2016-12-05T06:10:02.371Z,-4.62
2016-12-05T06:11:02.345Z,-4.62
2016-12-05T06:12:02.317Z,-4.62
2016-12-05T06:13:02.606Z,-4.59
2016-12-05T06:14:02.581Z,-4.65
2016-12-05T06:15:02.238Z,-4.61
2016-12-05T06:16:02.529Z,-4.62
2016-12-05T06:17:02.190Z,-4.65
2016-12-05T06:18:02.172Z,-4.64
2016-12-05T06:19:02.136Z,-4.54
2016-12-05T06:20:02.421Z,-4.65
2016-12-05T06:21:02.080Z,-4.68
2016-12-05T06:22:02.057Z,-4.69
2016-12-05T06:23:02.033Z,-4.61
2016-12-05T06:24:02.318Z,-4.55
2016-12-05T06:25:01.983Z,-4.62
2016-12-05T06:26:01.961Z,-4.64
2016-12-05T06:27:01.934Z,-4.61
2016-12-05T06:28:01.904Z,-4.62
2016-12-05T06:29:01.874Z,-4.62
2016-12-05T06:30:01.853Z,-4.64
2016-12-05T06:31:01.837Z,-4.59
2016-12-05T06:32:01.798Z,-4.59
2016-12-05T06:33:02.169Z,-4.68
2016-12-05T06:34:02.096Z,-4.75
2016-12-05T06:35:01.726Z,-4.77
2016-12-05T06:36:01.692Z,-4.62
2016-12-05T06:37:01.665Z,-4.79
2016-12-05T06:38:01.643Z,-4.69
2016-12-05T06:39:01.613Z,-4.77
2016-12-05T06:40:01.591Z,-4.73
2016-12-05T06:41:01.556Z,-4.69
2016-12-05T06:42:01.532Z,-4.71
2016-12-05T06:43:01.829Z,-4.69
2016-12-05T06:44:01.481Z,-4.76
2016-12-05T06:45:01.463Z,-4.8
2016-12-05T06:46:01.457Z,-4.79
2016-12-05T06:47:01.403Z,-4.71
2016-12-05T06:48:01.377Z,-4.75
2016-12-05T06:49:01.354Z,-4.79
2016-12-05T06:50:01.635Z,-4.82
2016-12-05T06:51:01.301Z,-4.8
2016-12-05T06:52:01.588Z,-4.8
2016-12-05T06:53:01.571Z,-4.77
2016-12-05T06:54:01.228Z,-4.77
2016-12-05T06:55:01.201Z,-4.85
2016-12-05T06:56:01.488Z,-4.82
2016-12-05T06:57:01.146Z,-4.71
2016-12-05T06:58:01.148Z,-4.82
2016-12-05T06:59:03.009Z,-4.68
2016-12-05T07:00:01.060Z,-4.75
2016-12-05T07:01:01.038Z,-4.73
2016-12-05T07:02:01.013Z,-4.73
2016-12-05T07:03:00.984Z,-4.73
2016-12-05T07:04:00.955Z,-4.75
2016-12-05T07:05:00.937Z,-4.8
2016-12-05T07:06:00.910Z,-4.71
2016-12-05T07:07:00.887Z,-4.82
2016-12-05T07:08:00.855Z,-4.79
2016-12-05T07:09:01.142Z,-4.71
2016-12-05T07:10:00.802Z,-4.75
2016-12-05T07:11:00.778Z,-4.73
2016-12-05T07:12:00.749Z,-4.69
2016-12-05T07:13:00.727Z,-4.73
2016-12-05T07:14:00.696Z,-4.69
2016-12-05T07:15:00.670Z,-4.66
2016-12-05T07:16:00.647Z,-4.69
2016-12-05T07:17:00.934Z,-4.73
2016-12-05T07:18:00.594Z,-4.82
2016-12-05T07:19:00.570Z,-4.76
2016-12-05T07:20:00.540Z,-4.77
2016-12-05T07:21:00.510Z,-4.79
2016-12-05T07:22:00.491Z,-4.79
2016-12-05T07:23:00.463Z,-4.8
2016-12-05T07:24:00.430Z,-4.8
2016-12-05T07:25:00.407Z,-4.89
2016-12-05T07:26:00.383Z,-4.85
2016-12-05T07:27:00.667Z,-4.82
2016-12-05T07:28:00.327Z,-4.89
2016-12-05T07:29:00.308Z,-4.87
2016-12-05T07:30:00.275Z,-4.85
2016-12-05T07:31:00.252Z,-4.8
2016-12-05T07:32:00.225Z,-4.82
2016-12-05T07:33:00.200Z,-4.83
2016-12-05T07:34:00.168Z,-4.82
2016-12-05T07:35:00.144Z,-4.79
2016-12-05T07:36:00.121Z,-4.85
2016-12-05T07:37:00.090Z,-4.82
2016-12-05T07:38:00.065Z,-4.8
2016-12-05T07:39:00.040Z,-4.82
2016-12-05T07:40:00.012Z,-4.79
2016-12-05T07:40:59.996Z,-4.79
2016-12-05T07:41:59.961Z,-4.71
2016-12-05T07:42:59.938Z,-4.76
2016-12-05T07:43:59.911Z,-4.69
2016-12-05T07:44:59.882Z,-4.76
2016-12-05T07:45:59.858Z,-4.75
2016-12-05T07:46:59.856Z,-4.73
2016-12-05T07:48:00.138Z,-4.68
2016-12-05T07:48:59.774Z,-4.79
2016-12-05T07:49:59.775Z,-4.66
2016-12-05T07:50:59.728Z,-4.69
2016-12-05T07:51:59.704Z,-4.69
2016-12-05T07:52:59.671Z,-4.76
2016-12-05T07:53:59.645Z,-4.75
2016-12-05T07:54:59.991Z,-4.64
2016-12-05T07:55:59.595Z,-4.61
2016-12-05T07:56:59.570Z,-4.62
2016-12-05T07:57:59.540Z,-4.66
2016-12-05T07:58:59.518Z,-4.66
2016-12-05T07:59:59.489Z,-4.69
2016-12-05T08:00:59.462Z,-4.64
2016-12-05T08:01:59.441Z,-4.61
2016-12-05T08:02:59.405Z,-4.58
2016-12-05T08:03:59.385Z,-4.57
2016-12-05T08:04:59.561Z,-4.48
2016-12-05T08:05:59.330Z,-4.55
2016-12-05T08:06:59.307Z,-4.54
2016-12-05T08:07:59.278Z,-4.57
2016-12-05T08:08:59.260Z,-4.55
2016-12-05T08:09:59.226Z,-4.44
2016-12-05T08:10:59.515Z,-4.47
2016-12-05T08:11:59.174Z,-4.54
2016-12-05T08:12:59.149Z,-4.47
2016-12-05T08:13:59.120Z,-4.46
2016-12-05T08:14:59.094Z,-4.5
2016-12-05T08:15:59.075Z,-4.5
2016-12-05T08:16:59.044Z,-4.47
2016-12-05T08:17:59.020Z,-4.41
2016-12-05T08:18:58.992Z,-4.38
2016-12-05T08:19:58.968Z,-4.4
2016-12-05T08:20:58.938Z,-4.4
2016-12-05T08:21:58.914Z,-4.32
2016-12-05T08:22:58.889Z,-4.37
2016-12-05T08:23:58.862Z,-4.28
2016-12-05T08:24:58.835Z,-4.23
2016-12-05T08:25:59.122Z,-4.25
2016-12-05T08:26:58.797Z,-4.29
2016-12-05T08:27:58.768Z,-4.23
2016-12-05T08:28:58.738Z,-4.29
2016-12-05T08:29:58.709Z,-4.09
2016-12-05T08:30:58.687Z,-4.19
2016-12-05T08:31:58.656Z,-4.22
2016-12-05T08:32:58.632Z,-4.12
2016-12-05T08:33:58.601Z,-4.11
2016-12-05T08:34:58.579Z,-4.08
2016-12-05T08:35:58.548Z,-3.96
2016-12-05T08:36:58.533Z,-3.91
2016-12-05T08:37:58.564Z,-3.98
2016-12-05T08:38:58.480Z,-3.9
2016-12-05T08:39:58.451Z,-3.96
2016-12-05T08:40:58.419Z,-3.98
2016-12-05T08:41:58.393Z,-4.01
2016-12-05T08:42:58.374Z,-4.01
2016-12-05T08:43:58.381Z,-3.93
2016-12-05T08:44:58.319Z,-3.84
2016-12-05T08:45:58.291Z,-3.89
2016-12-05T08:46:58.269Z,-3.8
2016-12-05T08:47:58.239Z,-3.78
2016-12-05T08:48:58.214Z,-3.8
2016-12-05T08:49:58.503Z,-3.6
2016-12-05T08:50:58.165Z,-3.61
2016-12-05T08:51:58.458Z,-3.6
2016-12-05T08:52:58.430Z,-3.62
2016-12-05T08:53:58.084Z,-3.7
2016-12-05T08:54:58.064Z,-3.62
2016-12-05T08:55:58.036Z,-3.53
2016-12-05T08:56:58.022Z,-3.49
2016-12-05T08:57:58.003Z,-3.53
2016-12-05T08:58:57.962Z,-3.39
2016-12-05T08:59:57.941Z,-3.38
2016-12-05T09:00:58.226Z,-3.31
2016-12-05T09:01:57.884Z,-3.38
2016-12-05T09:02:58.173Z,-3.31
2016-12-05T09:03:57.833Z,-3.32
2016-12-05T09:04:57.809Z,-3.22
2016-12-05T09:05:58.101Z,-3.14
2016-12-05T09:06:58.090Z,-3.14
2016-12-05T09:07:57.735Z,-3.15
2016-12-05T09:08:57.708Z,-3.1
2016-12-05T09:09:57.716Z,-2.96
2016-12-05T09:10:57.713Z,-2.99
2016-12-05T09:11:57.953Z,-2.92
2016-12-05T09:12:57.925Z,-2.87
2016-12-05T09:13:57.587Z,-2.81
2016-12-05T09:14:57.558Z,-2.82
2016-12-05T09:15:57.567Z,-2.81
2016-12-05T09:16:57.822Z,-2.82
2016-12-05T09:17:57.484Z,-2.75
2016-12-05T09:18:57.771Z,-2.75
2016-12-05T09:19:57.437Z,-2.69
2016-12-05T09:20:57.409Z,-2.66
2016-12-05T09:21:57.704Z,-2.61
2016-12-05T09:22:57.368Z,-2.58
2016-12-05T09:23:57.648Z,-2.45
2016-12-05T09:24:57.326Z,-2.23
2016-12-05T09:25:57.296Z,-2.18
2016-12-05T09:26:57.264Z,-1.99
2016-12-05T09:27:57.243Z,-1.82
2016-12-05T09:28:57.238Z,-1.75
2016-12-05T09:29:57.197Z,-1.63
2016-12-05T09:30:57.173Z,-1.56
2016-12-05T09:31:57.146Z,-1.46
2016-12-05T09:32:57.450Z,-1.39
2016-12-05T09:33:57.100Z,-1.03
2016-12-05T09:34:57.072Z,-0.86
2016-12-05T09:35:57.362Z,-0.77
2016-12-05T09:36:57.035Z,-0.81
2016-12-05T09:37:57.001Z,-0.83
2016-12-05T09:38:56.989Z,-0.73
2016-12-05T09:39:56.962Z,-0.62
2016-12-05T09:40:56.939Z,-0.52
2016-12-05T09:41:56.947Z,-0.24
2016-12-05T09:42:56.886Z,0.23
2016-12-05T09:43:57.221Z,0.71
2016-12-05T09:44:57.156Z,1.25
2016-12-05T09:45:56.825Z,1.55
2016-12-05T09:46:56.800Z,1.78
2016-12-05T09:47:56.831Z,2.01
2016-12-05T09:48:56.755Z,2.45
2016-12-05T09:49:56.738Z,2.81
2016-12-05T09:50:56.714Z,3.06
2016-12-05T09:51:56.702Z,3.46
2016-12-05T09:52:56.702Z,4.03
2016-12-05T09:53:56.660Z,4.51
2016-12-05T09:54:56.633Z,5.1
2016-12-05T09:55:56.616Z,5.63
2016-12-05T09:56:56.596Z,6.28
2016-12-05T09:57:56.576Z,6.87
2016-12-05T09:58:56.563Z,7.24
2016-12-05T09:59:56.542Z,7.79
2016-12-05T10:00:56.524Z,8.28
2016-12-05T10:01:56.508Z,8.58
2016-12-05T10:02:56.807Z,8.69
2016-12-05T10:03:56.792Z,8.73
2016-12-05T10:04:56.664Z,8.55
2016-12-05T10:05:56.756Z,8.62
2016-12-05T10:06:56.747Z,8.55
2016-12-05T10:07:56.439Z,8.79
2016-12-05T10:08:56.400Z,8.91
2016-12-05T10:09:56.382Z,9.25
2016-12-05T10:10:56.369Z,9.4
2016-12-05T10:11:56.349Z,9.58
2016-12-05T10:12:56.650Z,9.81
2016-12-05T10:13:56.320Z,10
2016-12-05T10:14:56.305Z,9.96
2016-12-05T10:15:56.291Z,9.91
2016-12-05T10:16:56.595Z,9.61
2016-12-05T10:17:56.265Z,9.39
2016-12-05T10:18:56.319Z,9.12
2016-12-05T10:19:56.237Z,8.84
2016-12-05T10:20:56.223Z,8.62
2016-12-05T10:21:56.210Z,8.29
2016-12-05T10:22:56.196Z,8.12
2016-12-05T10:23:56.177Z,8.03
2016-12-05T10:24:56.169Z,7.89
2016-12-05T10:25:56.155Z,7.85
2016-12-05T10:26:56.139Z,7.99
2016-12-05T10:27:56.149Z,8.12
2016-12-05T10:28:56.112Z,8.22
2016-12-05T10:29:56.099Z,8.32
2016-12-05T10:30:56.092Z,8.55
2016-12-05T10:31:56.076Z,8.75
2016-12-05T10:32:56.411Z,8.93
2016-12-05T10:33:56.052Z,9.1
2016-12-05T10:34:56.041Z,8.91
2016-12-05T10:35:56.023Z,8.93
2016-12-05T10:36:56.005Z,8.76
2016-12-05T10:37:56.306Z,8.4
2016-12-05T10:38:55.977Z,8.15
2016-12-05T10:39:56.279Z,8.02
2016-12-05T10:40:55.953Z,7.85
2016-12-05T10:41:55.938Z,7.79
2016-12-05T10:42:55.926Z,7.66
2016-12-05T10:43:55.915Z,7.44
2016-12-05T10:44:56.215Z,7.34
2016-12-05T10:45:55.893Z,7.13
2016-12-05T10:46:55.876Z,7.2
2016-12-05T10:47:56.176Z,7.32
2016-12-05T10:48:55.852Z,7.44
2016-12-05T10:49:56.163Z,7.55
2016-12-05T10:50:56.160Z,7.66
2016-12-05T10:51:55.804Z,7.77
2016-12-05T10:52:55.795Z,7.81
2016-12-05T10:53:55.806Z,8.02
2016-12-05T10:54:56.091Z,8.32
2016-12-05T10:55:55.829Z,8.36
2016-12-05T10:56:56.061Z,8.62
2016-12-05T10:57:55.733Z,8.88
2016-12-05T10:58:55.722Z,8.9
2016-12-05T10:59:55.714Z,9.06
2016-12-05T11:00:55.713Z,9.15
2016-12-05T11:01:55.687Z,9.13
2016-12-05T11:02:55.683Z,9.09
2016-12-05T11:03:55.680Z,8.93
2016-12-05T11:04:55.652Z,8.93
2016-12-05T11:05:55.646Z,8.91
2016-12-05T11:06:55.631Z,8.99
2016-12-05T11:07:55.619Z,9.09
2016-12-05T11:08:55.618Z,9.2
2016-12-05T11:09:55.609Z,9.43
2016-12-05T11:10:55.622Z,9.57
2016-12-05T11:11:55.584Z,9.75
2016-12-05T11:12:55.617Z,9.83
2016-12-05T11:13:55.892Z,9.83
2016-12-05T11:14:55.549Z,9.7
2016-12-05T11:15:55.556Z,9.4
2016-12-05T11:16:55.526Z,9.23
2016-12-05T11:17:55.572Z,8.93
2016-12-05T11:18:55.543Z,8.91
2016-12-05T11:19:55.497Z,8.69
2016-12-05T11:20:55.491Z,8.55
2016-12-05T11:21:55.476Z,8.36
2016-12-05T11:22:55.518Z,8.07
2016-12-05T11:23:55.455Z,7.79
2016-12-05T11:24:55.446Z,7.6
2016-12-05T11:25:55.432Z,7.45
2016-12-05T11:26:55.426Z,7.32
2016-12-05T11:27:55.415Z,7.13
2016-12-05T11:28:55.397Z,6.98
2016-12-05T11:29:55.389Z,6.76
2016-12-05T11:30:55.376Z,6.62
2016-12-05T11:31:55.361Z,6.43
2016-12-05T11:32:55.348Z,6.26
2016-12-05T11:33:55.337Z,6.11
2016-12-05T11:34:55.328Z,5.96
2016-12-05T11:35:55.623Z,5.91
2016-12-05T11:36:55.611Z,5.86
2016-12-05T11:37:55.297Z,5.67
2016-12-05T11:38:55.278Z,5.63
2016-12-05T11:39:55.609Z,5.59
2016-12-05T11:40:55.237Z,5.63
2016-12-05T11:41:55.226Z,5.46
2016-12-05T11:42:55.209Z,5.46
2016-12-05T11:43:55.196Z,5.3
2016-12-05T11:44:55.179Z,5.28
2016-12-05T11:45:55.160Z,5.28
2016-12-05T11:46:55.146Z,5.32
2016-12-05T11:47:55.128Z,5.34
2016-12-05T11:48:55.113Z,5.32
2016-12-05T11:49:55.099Z,5.32
2016-12-05T11:50:55.084Z,5.35
2016-12-05T11:51:55.067Z,5.32
2016-12-05T11:52:55.053Z,5.32
2016-12-05T11:53:55.342Z,5.34
2016-12-05T11:54:55.023Z,5.32
2016-12-05T11:55:55.004Z,5.27
2016-12-05T11:56:54.990Z,5.13
2016-12-05T11:57:54.969Z,5.16
2016-12-05T11:58:54.959Z,5.31
2016-12-05T11:59:54.934Z,5.22
2016-12-05T12:00:55.231Z,5.35
2016-12-05T12:01:55.213Z,5.23
2016-12-05T12:02:55.199Z,5.37
2016-12-05T12:03:54.875Z,5.49
2016-12-05T12:04:55.059Z,5.66
2016-12-05T12:05:54.839Z,5.82
2016-12-05T12:06:55.145Z,6.19
2016-12-05T12:07:54.813Z,6.8
2016-12-05T12:08:54.795Z,7.35
2016-12-05T12:09:54.782Z,7.89
2016-12-05T12:10:54.769Z,8.39
2016-12-05T12:11:54.755Z,8.91
2016-12-05T12:12:54.741Z,9.43
2016-12-05T12:13:55.044Z,10.07
2016-12-05T12:14:54.730Z,10.3
2016-12-05T12:15:54.712Z,10.74
2016-12-05T12:16:54.696Z,11.13
2016-12-05T12:17:54.685Z,11.47
2016-12-05T12:18:54.678Z,11.93
2016-12-05T12:19:54.666Z,12.19
2016-12-05T12:20:54.662Z,12.34
2016-12-05T12:21:54.650Z,12.69
2016-12-05T12:22:54.639Z,12.95
2016-12-05T12:23:54.631Z,13.21
2016-12-05T12:24:54.945Z,13.43
2016-12-05T12:25:54.621Z,13.58
2016-12-05T12:26:54.924Z,13.8
2016-12-05T12:27:54.629Z,13.94
2016-12-05T12:28:54.612Z,14.09
2016-12-05T12:29:54.591Z,14.29
2016-12-05T12:30:54.584Z,14.32
2016-12-05T12:31:54.577Z,14.44
2016-12-05T12:32:54.884Z,14.44
2016-12-05T12:33:54.593Z,14.68
2016-12-05T12:34:54.555Z,14.8
2016-12-05T12:35:54.552Z,14.99
2016-12-05T12:36:54.548Z,14.95
2016-12-05T12:37:54.575Z,14.8
2016-12-05T12:38:54.542Z,14.9
2016-12-05T12:39:54.541Z,14.99
2016-12-05T12:40:54.532Z,15.13
2016-12-05T12:41:54.562Z,15.27
2016-12-05T12:42:54.856Z,15.33
2016-12-05T12:43:54.828Z,15.43
2016-12-05T12:44:54.513Z,15.41
2016-12-05T12:45:54.817Z,15.33
2016-12-05T12:46:54.502Z,15.36
2016-12-05T12:47:54.816Z,15.42
2016-12-05T12:48:54.522Z,15.45
2016-12-05T12:49:54.493Z,15.52
2016-12-05T12:50:54.485Z,15.54
2016-12-05T12:51:54.486Z,15.6
2016-12-05T12:52:54.480Z,15.68
2016-12-05T12:53:54.796Z,15.59
2016-12-05T12:54:54.472Z,15.59
2016-12-05T12:55:54.468Z,15.52
2016-12-05T12:56:54.467Z,15.35
2016-12-05T12:57:54.468Z,15.17
2016-12-05T12:58:54.458Z,15.05
2016-12-05T12:59:54.485Z,15.06